Time;durP1;ratioP1;P1;durP2;ratioP2;P2;SDS_P1;SDS_P2;PMS_P1;PMS_P2;Temp;Humidity;BMP_temperature;BMP_pressure;BME280_temperature;BME280_humidity;BME280_pressure;Samples;Min_cycle;Max_cycle;Signal;HPM_P1;HPM_P2
2022/08/14 00:00:29;;;;;;;4.65;3.20;;;20.40;99.90;;;;;;5032381;28;20045;-73
2022/08/14 00:02:55;;;;;;;4.80;3.40;;;20.30;99.90;;;;;;5015926;28;20041;-77
2022/08/14 00:05:21;;;;;;;4.20;3.20;;;20.30;99.90;;;;;;5016259;28;20041;-75
2022/08/14 00:07:48;;;;;;;4.75;3.50;;;20.30;99.90;;;;;;5031930;28;20045;-78
2022/08/14 00:10:18;;;;;;;5.00;3.53;;;20.20;99.90;;;;;;5015604;28;20084;-73
2022/08/14 00:12:50;;;;;;;4.70;3.30;;;20.30;99.90;;;;;;5031999;28;20061;-73
2022/08/14 00:15:35;;;;;;;4.10;3.15;;;20.20;99.90;;;;;;5031989;28;20276;-73
2022/08/14 00:18:01;;;;;;;5.00;2.95;;;20.20;99.90;;;;;;5031921;28;20037;-73
2022/08/14 00:20:30;;;;;;;4.88;3.40;;;20.20;99.90;;;;;;5031899;28;20056;-78
2022/08/14 00:22:56;;;;;;;4.93;3.15;;;20.10;99.90;;;;;;5031908;28;20412;-73
2022/08/14 00:25:22;;;;;;;4.72;3.47;;;20.10;99.90;;;;;;5015652;28;20042;-78
2022/08/14 00:27:47;;;;;;;8.05;3.45;;;20.10;99.90;;;;;;5015213;28;20042;-73
2022/08/14 00:30:14;;;;;;;5.10;3.10;;;20.10;99.90;;;;;;5015347;28;20439;-72
2022/08/14 00:32:41;;;;;;;4.68;3.10;;;20.00;99.90;;;;;;5031734;28;20099;-70
2022/08/14 00:35:08;;;;;;;5.00;3.60;;;20.00;99.90;;;;;;5031725;28;20490;-73
2022/08/14 00:37:34;;;;;;;6.50;3.67;;;20.00;99.90;;;;;;5031453;28;20093;-79
2022/08/14 00:40:01;;;;;;;5.03;3.45;;;19.90;99.90;;;;;;5015283;28;20049;-70
2022/08/14 00:42:28;;;;;;;5.22;3.55;;;19.90;99.90;;;;;;5031714;28;20412;-73
2022/08/14 00:44:54;;;;;;;6.63;3.47;;;19.90;99.90;;;;;;5031559;28;20139;-72
2022/08/14 00:47:23;;;;;;;6.78;3.63;;;19.90;99.90;;;;;;5015258;28;20131;-70
2022/08/14 00:49:52;;;;;;;6.43;3.70;;;19.80;99.90;;;;;;5031548;28;20050;-73
2022/08/14 00:52:18;;;;;;;7.03;4.10;;;19.80;99.90;;;;;;5031895;28;20507;-73
2022/08/14 00:54:46;;;;;;;7.18;4.25;;;19.80;99.90;;;;;;5031552;28;20041;-78
2022/08/14 00:57:12;;;;;;;4.60;3.35;;;19.70;99.90;;;;;;4999254;28;20048;-73
2022/08/14 00:59:38;;;;;;;5.47;3.40;;;19.70;99.90;;;;;;5017402;28;20076;-79
2022/08/14 01:02:04;;;;;;;4.63;3.58;;;19.70;99.90;;;;;;5035409;28;20045;-73
2022/08/14 01:04:34;;;;;;;6.25;4.10;;;19.70;99.90;;;;;;5035394;28;20124;-70
2022/08/14 01:07:01;;;;;;;5.07;3.60;;;19.60;99.90;;;;;;5035332;28;20049;-73
2022/08/14 01:09:29;;;;;;;7.45;4.50;;;19.60;99.90;;;;;;5035304;28;20044;-69
2022/08/14 01:11:56;;;;;;;6.65;4.22;;;19.60;99.90;;;;;;5018762;28;20049;-73
2022/08/14 01:14:22;;;;;;;7.95;4.30;;;19.60;99.90;;;;;;5035422;28;20485;-79
2022/08/14 01:16:48;;;;;;;5.65;3.63;;;19.50;99.90;;;;;;5018654;28;20042;-73
2022/08/14 01:21:58;;;;;;;6.47;4.30;;;19.50;99.90;;;;;;5035009;28;20111;-74
2022/08/14 01:24:25;;;;;;;6.97;4.35;;;19.40;99.90;;;;;;5035279;28;20033;-73
2022/08/14 01:26:52;;;;;;;5.70;3.78;;;19.40;99.90;;;;;;5018386;28;20107;-73
2022/08/14 01:29:19;;;;;;;6.60;4.15;;;19.40;99.90;;;;;;5035255;28;20042;-70
2022/08/14 01:31:46;;;;;;;6.05;4.30;;;19.30;99.90;;;;;;5034875;28;20033;-79
2022/08/14 01:34:12;;;;;;;5.45;4.20;;;19.30;99.90;;;;;;5018588;28;20041;-73
2022/08/14 01:36:38;;;;;;;6.88;4.80;;;19.30;99.90;;;;;;5034748;28;20488;-73
2022/08/14 01:39:11;;;;;;;7.30;4.45;;;19.20;99.90;;;;;;5034932;28;20060;-70
2022/08/14 01:41:37;;;;;;;7.82;4.35;;;19.20;99.90;;;;;;5034787;28;20128;-73
2022/08/14 01:44:07;;;;;;;6.50;4.30;;;19.20;99.90;;;;;;5034583;28;20046;-73
2022/08/14 01:46:35;;;;;;;7.35;4.43;;;19.10;99.90;;;;;;5034607;28;20049;-79
2022/08/14 01:49:04;;;;;;;6.15;4.55;;;19.10;99.90;;;;;;5034546;28;20030;-73
2022/08/14 01:51:32;;;;;;;5.32;4.00;;;19.10;99.90;;;;;;5018329;28;20398;-73
2022/08/14 01:54:04;;;;;;;6.07;4.40;;;19.00;99.90;;;;;;5034535;28;20050;-73
2022/08/14 01:56:38;;;;;;;6.60;4.30;;;19.00;99.90;;;;;;5034815;28;20030;-73
2022/08/14 01:59:32;;;;;;;7.05;4.55;;;19.00;99.90;;;;;;5034380;28;20049;-73
2022/08/14 02:02:08;;;;;;;8.45;4.60;;;19.00;99.90;;;;;;5012854;28;20571;-73
2022/08/14 02:04:35;;;;;;;7.65;4.90;;;19.00;99.90;;;;;;5034256;28;20385;-79
2022/08/14 02:07:02;;;;;;;7.20;5.05;;;18.90;99.90;;;;;;5017651;28;20133;-78
2022/08/14 02:09:34;;;;;;;7.45;5.03;;;19.00;99.90;;;;;;5034272;28;20436;-70
2022/08/14 02:12:01;;;;;;;9.15;5.63;;;18.90;99.90;;;;;;5017176;28;20532;-78
2022/08/14 02:14:27;;;;;;;6.78;4.43;;;19.00;99.90;;;;;;5034431;28;20037;-73
2022/08/14 02:16:53;;;;;;;5.70;4.68;;;18.90;99.90;;;;;;5001286;28;20034;-79
2022/08/14 02:19:21;;;;;;;9.75;5.35;;;18.90;99.90;;;;;;5017511;28;20040;-73
2022/08/14 02:21:49;;;;;;;7.88;5.20;;;18.90;99.90;;;;;;5034278;28;20052;-71
2022/08/14 02:24:16;;;;;;;7.45;4.90;;;18.80;99.90;;;;;;5034205;28;20037;-73
2022/08/14 02:26:48;;;;;;;7.07;5.18;;;18.80;99.90;;;;;;5033837;28;20072;-73
2022/08/14 02:29:17;;;;;;;6.90;4.63;;;18.80;99.90;;;;;;5017965;28;20104;-73
2022/08/14 02:31:48;;;;;;;5.45;4.47;;;18.80;99.90;;;;;;5033723;28;20503;-79
2022/08/14 02:34:17;;;;;;;8.60;5.05;;;18.80;99.90;;;;;;5017249;28;20046;-79
2022/08/14 02:36:45;;;;;;;6.70;4.95;;;18.80;99.90;;;;;;5017154;28;20143;-78
2022/08/14 02:39:13;;;;;;;10.85;5.63;;;18.80;99.90;;;;;;5017086;28;20124;-78
2022/08/14 02:41:40;;;;;;;7.65;5.20;;;18.80;99.90;;;;;;5033655;28;20129;-73
2022/08/14 02:44:09;;;;;;;7.07;5.28;;;18.80;99.90;;;;;;5000651;28;20045;-78
2022/08/14 02:46:39;;;;;;;8.10;5.38;;;18.70;99.90;;;;;;5001158;28;20037;-70
2022/08/14 02:49:05;;;;;;;8.68;5.85;;;18.80;99.90;;;;;;5016922;28;20129;-72
2022/08/14 02:51:32;;;;;;;7.53;5.40;;;18.70;99.90;;;;;;5033378;28;20083;-72
2022/08/14 02:54:00;;;;;;;8.52;5.05;;;18.70;99.90;;;;;;5033572;28;20037;-70
2022/08/14 02:56:26;;;;;;;8.00;5.60;;;18.70;99.90;;;;;;5033243;28;20045;-69
2022/08/14 02:58:55;;;;;;;8.63;5.20;;;18.70;99.90;;;;;;5033148;28;20041;-73
2022/08/14 03:01:22;;;;;;;10.10;5.30;;;18.70;99.90;;;;;;5033565;28;20049;-70
2022/08/14 03:03:49;;;;;;;11.90;6.30;;;18.70;99.90;;;;;;5033451;28;20048;-78
2022/08/14 03:06:15;;;;;;;9.82;6.15;;;18.60;99.90;;;;;;5016625;28;20443;-73
2022/08/14 03:08:42;;;;;;;9.50;6.15;;;18.70;99.90;;;;;;5016683;28;20045;-72
2022/08/14 03:11:09;;;;;;;10.88;5.35;;;18.60;99.90;;;;;;5033244;28;20045;-73
2022/08/14 03:13:38;;;;;;;9.23;5.95;;;18.60;99.90;;;;;;5033133;28;20040;-79
2022/08/14 03:16:06;;;;;;;11.18;6.05;;;18.60;99.90;;;;;;5016740;28;20061;-70
2022/08/14 03:18:32;;;;;;;9.35;5.65;;;18.60;99.90;;;;;;5016702;28;20221;-77
2022/08/14 03:21:06;;;;;;;7.25;5.25;;;18.60;99.90;;;;;;5016279;28;20579;-79
2022/08/14 03:23:35;;;;;;;8.02;5.45;;;18.60;99.90;;;;;;5032976;28;20049;-73
2022/08/14 03:26:02;;;;;;;8.65;6.28;;;18.50;99.90;;;;;;5016225;28;20051;-72
2022/08/14 03:28:29;;;;;;;9.23;5.40;;;18.50;99.90;;;;;;5032637;28;20045;-79
2022/08/14 03:30:58;;;;;;;12.82;6.00;;;18.50;99.90;;;;;;5032612;28;20400;-72
2022/08/14 03:33:23;;;;;;;10.90;6.05;;;18.50;99.90;;;;;;5032620;28;20400;-73
2022/08/14 03:35:50;;;;;;;10.43;5.90;;;18.40;99.90;;;;;;5032376;28;20140;-72
2022/08/14 03:38:17;;;;;;;8.88;5.65;;;18.50;99.90;;;;;;5016304;28;20095;-69
2022/08/14 03:40:43;;;;;;;9.15;6.25;;;18.50;99.90;;;;;;5032504;28;20128;-79
2022/08/14 03:43:09;;;;;;;9.13;5.47;;;18.40;99.90;;;;;;5016006;28;20045;-73
2022/08/14 03:45:37;;;;;;;10.80;6.00;;;18.40;99.90;;;;;;5016059;28;20132;-73
2022/08/14 03:48:23;;;;;;;7.47;5.50;;;18.30;99.90;;;;;;5032308;28;20041;-70
2022/08/14 03:50:52;;;;;;;8.80;6.32;;;18.40;99.90;;;;;;4999096;28;20099;-79
2022/08/14 03:53:19;;;;;;;8.82;5.93;;;18.40;99.90;;;;;;5032312;28;20037;-70
2022/08/14 03:55:46;;;;;;;8.00;5.32;;;18.40;99.90;;;;;;5032565;28;20084;-79
2022/08/14 03:58:14;;;;;;;8.23;6.35;;;18.40;99.90;;;;;;5015655;28;20053;-73
2022/08/14 04:00:41;;;;;;;11.07;6.50;;;18.40;99.90;;;;;;5032379;28;20519;-70
2022/08/14 04:03:09;;;;;;;10.15;6.85;;;18.40;99.90;;;;;;5032104;28;20081;-70
2022/08/14 04:05:37;;;;;;;10.60;6.22;;;18.40;99.90;;;;;;5015704;28;20412;-73
2022/08/14 04:08:04;;;;;;;9.32;6.35;;;18.40;99.90;;;;;;5031941;28;20091;-73
2022/08/14 04:10:30;;;;;;;14.48;6.95;;;18.40;99.90;;;;;;5015889;28;20041;-70
2022/08/14 04:12:58;;;;;;;13.57;6.72;;;18.40;99.90;;;;;;5015643;28;20044;-72
2022/08/14 04:15:25;;;;;;;9.52;6.22;;;18.40;99.90;;;;;;5032239;28;20049;-71
2022/08/14 04:17:52;;;;;;;10.38;6.45;;;18.40;99.90;;;;;;5015965;28;20050;-73
2022/08/14 04:20:19;;;;;;;8.80;6.45;;;18.40;99.90;;;;;;5032143;28;20416;-73
2022/08/14 04:22:45;;;;;;;7.43;6.03;;;18.40;99.90;;;;;;5031938;28;20085;-71
2022/08/14 04:25:10;;;;;;;8.80;5.90;;;18.40;99.90;;;;;;5015420;28;20512;-73
2022/08/14 04:27:37;;;;;;;8.90;6.43;;;18.40;99.90;;;;;;5015343;28;20037;-73
2022/08/14 04:30:04;;;;;;;8.73;5.90;;;18.40;99.90;;;;;;5015381;28;20444;-79
2022/08/14 04:32:32;;;;;;;9.98;6.35;;;18.40;99.90;;;;;;5015544;28;20069;-69
2022/08/14 04:35:01;;;;;;;10.50;6.43;;;18.40;99.90;;;;;;5021265;28;20045;-70
2022/08/14 04:45:41;;;;;;;8.40;6.13;;;18.40;99.90;;;;;;5038192;28;20048;-70
2022/08/14 04:48:12;;;;;;;7.15;5.78;;;18.50;99.90;;;;;;5038192;28;20048;-79
2022/08/14 04:50:44;;;;;;;7.80;5.38;;;18.40;99.90;;;;;;5038617;28;20048;-72
2022/08/14 04:53:12;;;;;;;9.93;6.28;;;18.50;99.90;;;;;;5038490;28;20041;-72
2022/08/14 04:55:40;;;;;;;9.88;6.72;;;18.50;99.90;;;;;;5021714;28;20416;-69
2022/08/14 04:58:05;;;;;;;8.93;6.22;;;18.50;99.90;;;;;;5038376;28;20405;-70
2022/08/14 05:00:32;;;;;;;9.80;5.70;;;18.60;99.90;;;;;;5038060;28;20041;-79
2022/08/14 05:02:58;;;;;;;9.52;6.10;;;18.60;99.90;;;;;;5038052;28;20079;-70
2022/08/14 05:05:24;;;;;;;6.22;5.20;;;18.60;99.90;;;;;;5021844;28;20049;-70
2022/08/14 05:07:53;;;;;;;7.90;5.88;;;18.60;99.90;;;;;;5021566;28;20042;-79
2022/08/14 05:10:24;;;;;;;8.90;6.07;;;18.50;99.90;;;;;;5038209;28;20481;-79
2022/08/14 05:12:52;;;;;;;6.85;5.72;;;18.70;99.90;;;;;;5038185;28;20077;-79
2022/08/14 05:15:20;;;;;;;9.00;6.15;;;18.80;99.90;;;;;;5038281;28;20041;-79
2022/08/14 05:17:46;;;;;;;8.45;5.80;;;18.80;99.90;;;;;;5037958;28;20081;-73
2022/08/14 05:20:12;;;;;;;7.95;6.20;;;18.80;99.90;;;;;;5005432;28;20049;-78
2022/08/14 05:22:37;;;;;;;10.07;5.88;;;18.90;99.90;;;;;;5021599;28;20042;-73
2022/08/14 05:25:04;;;;;;;7.85;6.10;;;18.90;99.90;;;;;;5037841;28;20045;-79
2022/08/14 05:27:29;;;;;;;9.63;6.00;;;18.90;99.90;;;;;;5021351;28;20085;-73
2022/08/14 05:29:55;;;;;;;8.60;6.18;;;18.90;99.90;;;;;;5021309;28;20069;-78
2022/08/14 05:32:22;;;;;;;9.68;6.45;;;19.00;99.90;;;;;;5021255;28;20135;-69
2022/08/14 05:34:47;;;;;;;8.82;5.75;;;18.90;99.90;;;;;;5037867;28;20041;-73
2022/08/14 05:37:13;;;;;;;8.30;6.03;;;19.00;99.90;;;;;;5037628;28;20415;-70
2022/08/14 05:39:42;;;;;;;10.00;6.53;;;19.00;99.90;;;;;;5038044;28;20562;-69
2022/08/14 05:42:08;;;;;;;9.60;6.22;;;19.10;99.90;;;;;;5037793;28;20474;-70
2022/08/14 05:44:34;;;;;;;10.93;6.63;;;19.20;99.90;;;;;;5004119;28;20045;-73
2022/08/14 05:47:00;;;;;;;8.23;6.22;;;19.30;99.90;;;;;;5033678;28;20041;-72
2022/08/14 05:49:27;;;;;;;9.52;6.82;;;19.30;99.90;;;;;;5034562;28;20037;-72
2022/08/14 05:51:52;;;;;;;9.10;6.07;;;19.40;99.90;;;;;;5034770;28;20041;-79
2022/08/14 05:54:18;;;;;;;9.40;6.30;;;19.50;99.90;;;;;;5034806;28;20042;-78
2022/08/14 05:56:45;;;;;;;9.68;6.38;;;19.50;99.90;;;;;;5034441;28;20132;-72
2022/08/14 05:59:11;;;;;;;9.73;6.35;;;19.60;99.90;;;;;;5018337;28;20049;-72
2022/08/14 06:01:37;;;;;;;11.55;6.55;;;19.70;99.90;;;;;;5034420;28;20045;-73
2022/08/14 06:04:03;;;;;;;10.90;6.25;;;19.70;99.90;;;;;;5034235;28;20033;-79
2022/08/14 06:06:28;;;;;;;7.25;5.78;;;19.80;99.90;;;;;;5034478;28;20045;-70
2022/08/14 06:08:54;;;;;;;10.77;5.72;;;19.90;99.90;;;;;;5034156;28;20045;-73
2022/08/14 06:11:20;;;;;;;11.23;6.53;;;20.10;99.90;;;;;;5034159;28;20044;-72
2022/08/14 06:13:46;;;;;;;8.82;5.57;;;20.20;99.90;;;;;;5017656;28;20497;-73
2022/08/14 06:16:15;;;;;;;9.40;6.35;;;20.40;99.90;;;;;;5034091;28;20095;-73
2022/08/14 06:18:42;;;;;;;8.90;5.87;;;20.50;99.90;;;;;;5033988;28;20053;-69
2022/08/14 06:21:07;;;;;;;8.98;6.18;;;20.70;99.90;;;;;;5017467;28;20371;-78
2022/08/14 06:23:33;;;;;;;10.15;6.68;;;20.80;99.90;;;;;;5034223;28;20552;-74
2022/08/14 06:25:59;;;;;;;9.98;6.13;;;20.90;99.90;;;;;;5034284;28;20045;-71
2022/08/14 06:28:26;;;;;;;8.77;6.50;;;21.00;99.90;;;;;;5033749;28;20239;-79
2022/08/14 06:30:52;;;;;;;7.47;6.07;;;21.10;99.90;;;;;;5017257;28;20049;-71
2022/08/14 06:33:19;;;;;;;8.05;5.97;;;21.20;99.90;;;;;;5033755;28;20052;-73
2022/08/14 06:35:47;;;;;;;9.18;5.80;;;21.40;99.90;;;;;;5033875;28;20538;-73
2022/08/14 06:38:19;;;;;;;9.30;5.95;;;21.60;99.90;;;;;;5033647;28;20045;-75
2022/08/14 06:40:45;;;;;;;6.40;4.80;;;21.70;99.90;;;;;;5033832;28;20045;-71
2022/08/14 06:43:12;;;;;;;6.95;5.18;;;21.90;99.90;;;;;;5017110;28;20128;-77
2022/08/14 06:45:39;;;;;;;9.18;5.95;;;22.00;99.90;;;;;;5016882;28;20436;-75
2022/08/14 06:48:20;;;;;;;12.25;6.30;;;22.10;99.90;;;;;;5033126;28;20048;-76
2022/08/14 06:50:46;;;;;;;;;;;22.30;99.90;;;;;;5017580;28;20111;-75
2022/08/14 06:53:13;;;;;;;8.27;5.50;;;22.40;99.90;;;;;;5033506;28;20396;-73
2022/08/14 06:55:41;;;;;;;6.72;5.30;;;22.50;99.90;;;;;;5033186;28;20041;-71
2022/08/14 06:58:11;;;;;;;7.45;5.25;;;22.70;99.90;;;;;;5016656;28;20076;-76
2022/08/14 07:00:37;;;;;;;6.65;4.80;;;22.80;99.90;;;;;;5016923;28;20045;-75
2022/08/14 07:05:48;;;;;;;8.07;5.75;;;23.10;99.90;;;;;;5033290;28;20591;-77
2022/08/14 07:08:26;;;;;;;5.28;4.55;;;23.20;99.90;;;;;;5016677;28;20385;-75
2022/08/14 07:10:55;;;;;;;6.80;4.55;;;23.30;99.90;;;;;;5032988;28;20042;-77
2022/08/14 07:13:23;;;;;;;5.82;4.47;;;23.50;99.90;;;;;;5016571;28;20175;-75
2022/08/14 07:15:50;;;;;;;7.45;4.57;;;23.60;99.90;;;;;;5032979;28;20112;-74
2022/08/14 07:18:21;;;;;;;5.43;4.22;;;23.70;99.90;;;;;;5016481;28;20047;-79
2022/08/14 07:20:47;;;;;;;7.57;4.75;;;23.80;99.90;;;;;;5033111;28;20056;-72
2022/08/14 07:23:13;;;;;;;6.70;4.97;;;23.90;99.90;;;;;;5032810;28;20045;-76
2022/08/14 07:25:40;;;;;;;10.48;4.32;;;24.00;99.90;;;;;;5016410;28;20411;-75
2022/08/14 07:28:12;;;;;;;5.53;4.38;;;24.10;99.90;;;;;;5032621;28;20041;-70
2022/08/14 07:30:38;;;;;;;5.55;4.10;;;24.20;99.90;;;;;;5032873;28;20033;-77
2022/08/14 07:33:04;;;;;;;5.03;3.90;;;24.20;99.90;;;;;;5032756;28;20418;-70
2022/08/14 07:35:31;;;;;;;5.45;4.25;;;24.30;99.90;;;;;;5019225;28;20037;-75
2022/08/14 07:37:57;;;;;;;5.85;4.30;;;24.40;99.90;;;;;;5073644;28;20044;-76
2022/08/14 07:40:23;;;;;;;5.47;4.07;;;24.50;99.90;;;;;;5055929;28;20098;-69
2022/08/14 07:42:49;;;;;;;5.57;4.00;;;24.60;99.90;;;;;;5055926;28;20033;-75
2022/08/14 07:45:14;;;;;;;6.40;4.78;;;24.70;99.90;;;;;;5039203;28;20052;-69
2022/08/14 07:47:41;;;;;;;6.70;4.32;;;24.80;99.90;;;;;;5039233;28;20051;-71
2022/08/14 07:50:19;;;;;;;5.60;3.78;;;24.80;99.90;;;;;;5055604;28;20407;-76
2022/08/14 07:52:46;;;;;;;7.13;4.82;;;25.00;99.90;;;;;;5055843;28;20047;-73
2022/08/14 07:55:14;;;;;;;5.30;4.03;;;25.10;99.90;;;;;;5040377;28;20513;-78
2022/08/14 07:57:41;;;;;;;4.97;3.88;;;25.20;99.90;;;;;;5056551;28;20048;-79
2022/08/14 08:00:13;;;;;;;5.20;4.18;;;25.20;99.90;;;;;;5039461;28;20067;-73
2022/08/14 08:02:41;;;;;;;6.72;3.50;;;25.30;99.90;;;;;;5056485;28;20047;-77
2022/08/14 08:05:09;;;;;;;4.05;2.88;;;25.40;99.90;;;;;;5023145;28;20036;-76
2022/08/14 08:07:36;;;;;;;4.63;3.42;;;25.50;99.90;;;;;;5038586;28;20050;-75
2022/08/14 08:10:33;;;;;;;4.82;3.63;;;25.50;99.90;;;;;;5021753;28;20099;-73
2022/08/14 08:13:14;;;;;;;5.90;3.85;;;25.50;99.90;;;;;;5055179;28;20192;-72
2022/08/14 08:15:45;;;;;;;5.68;3.30;;;25.50;99.90;;;;;;5038647;28;20032;-74
2022/08/14 08:18:12;;;;;;;;;;;25.70;99.90;;;;;;5055566;28;20040;-75
2022/08/14 08:20:43;;;;;;;4.85;3.45;;;25.80;99.90;;;;;;5038811;28;20330;-74
2022/08/14 08:23:08;;;;;;;6.53;4.43;;;25.90;99.90;;;;;;5038700;28;20082;-73
2022/08/14 08:25:39;;;;;;;5.28;3.50;;;;;;;;;;5055382;28;20048;-71
2022/08/14 08:28:11;;;;;;;5.15;3.88;;;26.10;99.90;;;;;;5054959;28;20127;-75
2022/08/14 08:30:39;;;;;;;5.25;3.30;;;26.30;99.90;;;;;;5055082;28;20075;-77
2022/08/14 08:33:07;;;;;;;6.40;3.92;;;26.30;99.90;;;;;;5055227;28;20076;-74
2022/08/14 08:35:35;;;;;;;5.38;3.85;;;26.40;99.90;;;;;;5054733;28;20032;-76
2022/08/14 08:38:03;;;;;;;4.30;3.03;;;;;;;;;;5038373;28;20102;-71
2022/08/14 08:40:35;;;;;;;4.53;3.15;;;26.50;99.90;;;;;;5054966;28;20416;-74
2022/08/14 08:43:02;;;;;;;4.28;2.92;;;;;;;;;;5055246;28;20044;-76
2022/08/14 08:45:28;;;;;;;4.25;3.00;;;;;;;;;;5054830;28;20113;-71
2022/08/14 08:47:54;;;;;;;4.35;2.83;;;;;;;;;;5038339;28;20124;-74
2022/08/14 08:50:29;;;;;;;3.85;3.42;;;;;;;;;;5038646;28;20495;-72
2022/08/14 08:52:56;;;;;;;4.07;3.05;;;;;;;;;;5054695;28;20041;-75
2022/08/14 08:55:31;;;;;;;4.00;3.17;;;;;;;;;;5055123;28;20040;-72
2022/08/14 08:58:05;;;;;;;4.53;3.30;;;;;;;;;;5054757;28;20048;-75
2022/08/14 09:00:33;;;;;;;8.45;3.40;;;;;;;;;;5054743;28;20040;-74
2022/08/14 09:03:14;;;;;;;4.45;3.00;;;;;;;;;;5038126;28;20051;-73
2022/08/14 09:05:51;;;;;;;4.68;3.45;;;;;;;;;;5054639;28;20055;-72
2022/08/14 09:08:28;;;;;;;7.57;3.08;;;;;;;;;;5054548;28;20119;-72
2022/08/14 09:10:54;;;;;;;7.25;3.00;;;;;;;;;;5054645;28;20072;-72
2022/08/14 09:13:24;;;;;;;4.30;3.15;;;;;;;;;;5038159;28;20090;-74
2022/08/14 09:15:51;;;;;;;7.50;3.10;;;;;;;;;;5054366;28;20093;-75
2022/08/14 09:18:18;;;;;;;4.55;2.90;;;;;;;;;;5054461;28;20048;-74
2022/08/14 09:20:47;;;;;;;4.68;3.47;;;27.40;99.90;;;;;;5056859;28;20037;-70
2022/08/14 09:23:14;;;;;;;7.78;3.05;;;27.40;99.90;;;;;;5058440;28;20050;-81
2022/08/14 09:25:42;;;;;;;5.55;3.33;;;27.50;99.90;;;;;;5058156;28;20074;-75
2022/08/14 09:28:08;;;;;;;4.35;2.60;;;27.40;99.90;;;;;;5041749;28;20036;-78
2022/08/14 09:30:41;;;;;;;4.18;2.95;;;27.40;99.90;;;;;;5025634;28;20033;-76
2022/08/14 09:33:25;;;;;;;4.47;3.22;;;27.50;99.90;;;;;;5041534;28;20040;-73
2022/08/14 09:36:23;;;;;;;4.47;2.95;;;27.50;99.90;;;;;;5041362;28;20154;-71
2022/08/14 09:39:08;;;;;;;3.60;2.78;;;27.50;99.90;;;;;;5058314;28;20186;-71
2022/08/14 09:41:53;;;;;;;3.85;2.90;;;27.60;99.90;;;;;;5041343;28;20131;-75
2022/08/14 09:44:58;;;;;;;4.05;2.72;;;27.60;99.90;;;;;;5041510;28;20047;-79
2022/08/14 09:47:44;;;;;;;5.43;2.97;;;27.60;99.90;;;;;;5057733;28;20094;-73
2022/08/14 09:50:20;;;;;;;5.32;3.10;;;27.70;99.80;;;;;;5041737;28;20044;-73
2022/08/14 09:52:55;;;;;;;4.53;2.58;;;27.80;99.90;;;;;;5057936;28;20050;-73
2022/08/14 09:55:22;;;;;;;3.85;2.47;;;;;;;;;;5057930;28;20043;-72
2022/08/14 09:57:50;;;;;;;3.28;2.10;;;27.80;99.20;;;;;;5057505;28;20052;-79
2022/08/14 10:00:18;;;;;;;3.38;2.47;;;;;;;;;;5057727;28;20048;-80
2022/08/14 10:03:01;;;;;;;5.88;2.78;;;;;;;;;;5057351;28;20044;-81
2022/08/14 10:05:37;;;;;;;2.90;2.25;;;;;;;;;;5057523;28;20041;-77
2022/08/14 10:08:03;;;;;;;4.03;2.90;;;;;;;;;;5040774;28;20084;-77
2022/08/14 10:10:36;;;;;;;4.90;2.53;;;;;;;;;;5057510;28;20395;-80
2022/08/14 10:13:05;;;;;;;3.40;2.50;;;28.50;99.90;;;;;;5040722;28;20032;-80
2022/08/14 10:15:32;;;;;;;2.58;2.25;;;28.60;99.90;;;;;;5040593;28;20070;-74
2022/08/14 10:18:08;;;;;;;3.03;2.30;;;28.40;99.90;;;;;;5024236;28;20083;-77
2022/08/14 10:21:05;;;;;;;3.83;2.60;;;28.60;99.90;;;;;;5040769;28;20041;-77
2022/08/14 10:23:44;;;;;;;4.75;2.95;;;28.60;99.90;;;;;;5028958;28;20055;-75
2022/08/14 10:26:14;;;;;;;3.22;2.60;;;28.60;99.90;;;;;;5057132;28;20042;-75
2022/08/14 10:28:42;;;;;;;3.33;2.40;;;28.40;99.90;;;;;;5057057;28;20072;-78
2022/08/14 10:31:30;;;;;;;3.20;2.33;;;28.60;99.90;;;;;;5040151;28;20124;-82
2022/08/14 10:34:05;;;;;;;3.50;2.75;;;28.60;99.90;;;;;;5057320;28;20080;-76
2022/08/14 10:36:37;;;;;;;3.92;2.88;;;28.60;99.90;;;;;;5057111;28;20080;-84
2022/08/14 10:39:06;;;;;;;4.05;2.83;;;28.70;99.90;;;;;;5056979;28;20094;-75
2022/08/14 10:41:40;;;;;;;3.88;2.55;;;28.70;99.90;;;;;;5056804;28;20434;-75
2022/08/14 10:44:16;;;;;;;3.30;2.30;;;28.70;99.90;;;;;;5056868;28;20384;-74
2022/08/14 10:46:57;;;;;;;5.15;2.70;;;28.70;99.90;;;;;;5040434;28;20056;-78
2022/08/14 10:49:25;;;;;;;4.80;2.78;;;28.80;99.90;;;;;;5040015;28;20044;-70
2022/08/14 10:52:18;;;;;;;3.45;2.58;;;28.80;99.90;;;;;;5056589;28;20094;-73
2022/08/14 10:54:46;;;;;;;4.20;2.90;;;28.80;99.90;;;;;;5056834;28;20052;-73
2022/08/14 10:57:12;;;;;;;4.03;2.80;;;28.70;99.90;;;;;;5040047;28;20043;-73
2022/08/14 10:59:51;;;;;;;5.47;3.38;;;28.80;99.90;;;;;;5040343;28;20032;-77
2022/08/14 11:02:29;;;;;;;4.47;3.35;;;28.80;99.90;;;;;;5056781;28;20432;-71
2022/08/14 11:04:57;;;;;;;3.78;3.03;;;28.80;99.90;;;;;;5056674;28;20044;-75
2022/08/14 11:07:25;;;;;;;4.90;3.08;;;28.80;99.90;;;;;;5056334;28;20040;-79
2022/08/14 11:09:58;;;;;;;4.05;2.88;;;28.70;99.90;;;;;;5056275;28;20055;-76
2022/08/14 11:12:25;;;;;;;3.83;2.90;;;28.80;99.90;;;;;;5056280;28;20095;-75
2022/08/14 11:14:59;;;;;;;4.57;3.03;;;28.70;99.90;;;;;;5056316;28;20044;-76
2022/08/14 11:17:30;;;;;;;6.32;3.08;;;29.10;99.90;;;;;;5056175;28;20044;-80
2022/08/14 11:19:58;;;;;;;4.85;3.08;;;28.80;99.90;;;;;;5056316;28;20131;-72
2022/08/14 11:22:30;;;;;;;3.47;2.63;;;28.90;99.90;;;;;;5056080;28;20040;-71
2022/08/14 11:25:05;;;;;;;4.28;3.15;;;29.00;99.90;;;;;;5056242;28;20062;-74
2022/08/14 11:27:32;;;;;;;4.97;2.83;;;29.10;99.90;;;;;;5039450;28;20047;-79
2022/08/14 11:30:05;;;;;;;4.57;3.28;;;29.00;99.90;;;;;;5056192;28;20124;-70
2022/08/14 11:32:31;;;;;;;3.83;2.78;;;29.00;99.90;;;;;;5039262;28;20041;-75
2022/08/14 11:35:02;;;;;;;4.35;3.10;;;29.20;99.90;;;;;;5055808;28;20029;-76
2022/08/14 11:37:28;;;;;;;4.40;3.20;;;29.20;99.90;;;;;;5039177;28;20393;-79
2022/08/14 11:39:54;;;;;;;4.03;3.03;;;29.30;98.40;;;;;;5039410;28;20135;-78
2022/08/14 11:42:23;;;;;;;4.15;3.20;;;29.30;99.90;;;;;;5055468;28;20043;-75
2022/08/14 11:44:56;;;;;;;4.30;3.35;;;29.30;99.90;;;;;;5038351;28;20051;-77
2022/08/14 11:47:22;;;;;;;3.78;3.08;;;29.20;99.90;;;;;;5038992;28;20059;-78
2022/08/14 11:49:48;;;;;;;4.90;3.00;;;;;;;;;;5039095;28;20032;-77
2022/08/14 11:52:16;;;;;;;4.05;3.20;;;;;;;;;;5039199;28;20070;-77
2022/08/14 11:54:42;;;;;;;5.88;3.00;;;29.60;99.90;;;;;;5056062;28;20441;-83
2022/08/14 11:57:16;;;;;;;3.78;2.75;;;29.50;99.90;;;;;;5056240;28;20119;-75
2022/08/14 11:59:42;;;;;;;4.97;3.65;;;29.70;99.90;;;;;;5038978;28;20045;-75
2022/08/14 12:02:12;;;;;;;4.07;2.92;;;;;;;;;;5022356;28;20037;-75
2022/08/14 12:04:48;;;;;;;3.63;2.75;;;;;;;;;;5055652;28;20439;-71
2022/08/14 12:07:14;;;;;;;3.42;2.70;;;;;;;;;;5038684;28;20127;-71
2022/08/14 12:09:40;;;;;;;3.42;2.47;;;;;;;;;;5038653;28;20039;-73
2022/08/14 12:12:20;;;;;;;3.45;2.60;;;29.80;99.90;;;;;;5055062;28;20120;-70
2022/08/14 12:14:58;;;;;;;3.83;2.72;;;30.00;96.80;;;;;;5038533;28;20043;-77
2022/08/14 12:17:32;;;;;;;3.45;2.80;;;29.60;93.00;;;;;;5054927;28;20189;-77
2022/08/14 12:20:00;;;;;;;3.15;2.40;;;29.90;93.40;;;;;;5054946;28;20063;-71
2022/08/14 12:22:41;;;;;;;4.90;2.78;;;30.00;93.00;;;;;;5055201;28;20036;-76
2022/08/14 12:25:10;;;;;;;3.25;2.90;;;30.00;93.30;;;;;;5055064;28;20048;-76
2022/08/14 12:27:48;;;;;;;4.30;2.90;;;30.10;93.40;;;;;;5054931;28;20048;-74
2022/08/14 12:30:25;;;;;;;5.07;2.97;;;30.40;99.90;;;;;;5054961;28;20043;-82
2022/08/14 12:32:51;;;;;;;6.10;3.22;;;30.40;99.60;;;;;;5038406;28;20040;-73
2022/08/14 12:35:16;;;;;;;3.60;2.63;;;30.50;99.90;;;;;;5022169;28;20043;-71
2022/08/14 12:37:49;;;;;;;3.42;2.38;;;30.50;99.90;;;;;;5038297;28;20492;-75
2022/08/14 12:40:16;;;;;;;5.45;3.45;;;;;;;;;;5022225;28;20051;-81
2022/08/14 12:42:43;;;;;;;9.25;3.72;;;;;;;;;;5038359;28;20044;-75
2022/08/14 12:45:13;;;;;;;3.72;2.88;;;;;;;;;;5055073;28;20438;-82
2022/08/14 12:47:39;;;;;;;;;;;;;;;;;;5038628;28;20048;-74
2022/08/14 12:50:05;;;;;;;3.42;2.72;;;;;;;;;;5055090;28;20269;-73
2022/08/14 12:52:39;;;;;;;9.52;3.58;;;;;;;;;;5054924;28;20051;-81
2022/08/14 12:55:06;;;;;;;4.13;3.20;;;;;;;;;;5056497;28;20044;-76
2022/08/14 12:57:43;;;;;;;6.68;3.10;;;;;;;;;;5042265;28;20094;-82
2022/08/14 13:00:14;;;;;;;6.68;2.83;;;;;;;;;;5042274;28;20044;-81
2022/08/14 13:02:41;;;;;;;5.20;2.90;;;;;;;;;;5042081;28;20131;-79
2022/08/14 13:05:09;;;;;;;4.00;2.78;;;;;;;;;;5058695;28;20045;-75
2022/08/14 13:07:39;;;;;;;4.65;2.88;;;;;;;;;;5042543;28;20036;-80
2022/08/14 13:10:06;;;;;;;3.60;3.00;;;;;;;;;;5058419;28;20449;-74
2022/08/14 13:12:32;;;;;;;3.53;2.60;;;;;;;;;;5058554;28;20078;-74
2022/08/14 13:14:58;;;;;;;5.32;3.17;;;;;;;;;;5042089;28;20070;-78
2022/08/14 13:17:25;;;;;;;4.32;3.03;;;;;;;;;;5041660;28;20045;-79
2022/08/14 13:19:55;;;;;;;4.57;3.08;;;;;;;;;;5076179;28;20050;-79
2022/08/14 13:22:26;;;;;;;5.45;3.28;;;;;;;;;;5058169;28;20134;-73
2022/08/14 13:24:52;;;;;;;4.32;3.30;;;;;;;;;;5058400;28;20120;-75
2022/08/14 13:27:22;;;;;;;4.20;3.15;;;;;;;;;;5058080;28;20044;-75